createdAt,value
2018-06-18T07:19:11.523Z,2.30
2018-06-18T07:21:41.644Z,2.10
2018-06-18T07:24:11.722Z,2.25
2018-06-18T07:26:41.721Z,2.20
2018-06-18T07:29:11.760Z,2.08
2018-06-18T07:31:41.747Z,2.35
2018-06-18T07:34:11.815Z,2.20
2018-06-18T07:36:42.055Z,2.17
2018-06-18T07:39:12.090Z,2.10
2018-06-18T07:41:42.111Z,2.15
2018-06-18T07:44:12.208Z,2.02
2018-06-18T07:46:42.251Z,1.98
2018-06-18T07:49:12.264Z,2.22
2018-06-18T07:51:41.980Z,2.00
2018-06-18T07:54:12.059Z,2.20
2018-06-18T07:56:42.042Z,1.80
2018-06-18T07:59:12.104Z,1.77
2018-06-18T08:01:42.168Z,2.22
2018-06-18T08:04:12.161Z,2.07
2018-06-18T08:06:42.302Z,2.02
2018-06-18T08:09:13.951Z,1.80
2018-06-18T08:11:44.533Z,2.00
2018-06-18T08:14:15.019Z,1.85
2018-06-18T08:16:45.528Z,2.35
2018-06-18T08:19:15.797Z,1.93
2018-06-18T08:21:46.257Z,2.00
2018-06-18T08:24:16.739Z,1.90
2018-06-18T08:26:46.831Z,1.82
2018-06-18T08:29:16.822Z,1.70
2018-06-18T08:31:46.890Z,1.77
2018-06-18T08:34:16.969Z,2.10
2018-06-18T08:36:47.216Z,2.15
2018-06-18T08:39:17.235Z,2.10
2018-06-18T08:41:47.285Z,2.15
2018-06-18T08:44:17.235Z,1.80
2018-06-18T08:46:49.588Z,2.00
2018-06-18T08:49:19.782Z,1.90
2018-06-18T08:51:55.004Z,2.08
2018-06-18T08:54:29.947Z,1.77
2018-06-18T08:57:05.048Z,2.20
2018-06-18T08:59:40.189Z,2.00
2018-06-18T09:02:10.268Z,2.10
2018-06-18T09:04:45.279Z,1.90
2018-06-18T09:07:17.316Z,1.90
2018-06-18T09:09:47.325Z,1.82
2018-06-18T09:12:17.391Z,2.30
2018-06-18T09:14:47.368Z,2.30
2018-06-18T09:17:17.378Z,2.02
2018-06-18T09:19:47.385Z,1.85
2018-06-18T09:26:41.874Z,2.08
2018-06-18T09:29:11.906Z,1.92
2018-06-18T09:31:47.224Z,1.90
2018-06-18T09:34:17.235Z,1.90
2018-06-18T09:36:47.267Z,2.10
2018-06-18T09:39:17.234Z,1.93
2018-06-18T09:41:47.278Z,1.93
2018-06-18T09:44:17.326Z,2.00
2018-06-18T09:46:47.423Z,1.70
2018-06-18T09:49:22.642Z,1.90
2018-06-18T09:51:57.759Z,1.77
2018-06-18T09:54:32.795Z,1.80
2018-06-18T09:57:07.781Z,2.03
2018-06-18T09:59:58.340Z,1.80
2018-06-18T10:02:29.314Z,1.77
2018-06-18T10:05:00.343Z,1.95
2018-06-18T10:07:30.407Z,2.00
2018-06-18T10:10:00.411Z,1.80
2018-06-18T10:12:30.681Z,2.05
2018-06-18T10:15:00.712Z,1.82
2018-06-18T10:17:30.788Z,1.80
2018-06-18T10:20:00.778Z,1.77
2018-06-18T10:22:30.914Z,1.90
2018-06-18T10:25:00.955Z,1.95
2018-06-18T10:27:31.084Z,1.90
2018-06-18T10:30:01.087Z,2.00
2018-06-18T10:32:35.919Z,1.92
2018-06-18T10:37:12.900Z,1.62
2018-06-18T10:39:48.122Z,1.55
2018-06-18T10:43:24.830Z,1.75
2018-06-18T10:45:54.842Z,1.80
2018-06-18T10:48:25.370Z,1.70
2018-06-18T10:50:56.065Z,1.50
2018-06-18T10:53:26.103Z,1.70
2018-06-18T10:55:56.159Z,1.62
2018-06-18T10:58:26.213Z,1.70
2018-06-18T11:01:03.202Z,1.80
2018-06-18T11:03:34.006Z,1.80
2018-06-18T11:06:09.136Z,1.60
2018-06-18T11:08:39.150Z,1.70
2018-06-18T11:11:09.120Z,1.85
2018-06-18T11:13:39.149Z,1.67
2018-06-18T11:16:09.206Z,1.62
2018-06-18T11:18:44.199Z,1.70
2018-06-18T11:21:19.397Z,1.80
2018-06-18T11:23:54.448Z,1.70
2018-06-18T11:26:29.649Z,1.75
2018-06-18T11:28:59.619Z,1.55
2018-06-18T11:31:29.616Z,1.95
2018-06-18T11:33:59.653Z,1.75
2018-06-18T11:36:29.632Z,1.82
2018-06-18T11:38:59.252Z,1.90
2018-06-18T11:41:29.258Z,2.10
2018-06-18T11:43:59.310Z,1.70
2018-06-18T11:46:29.355Z,1.90
2018-06-18T11:48:59.404Z,1.90
2018-06-18T11:51:29.040Z,1.80
2018-06-18T11:53:59.067Z,1.67
2018-06-18T11:56:29.193Z,2.12
2018-06-18T11:59:04.250Z,1.75
2018-06-18T12:01:39.379Z,1.82
2018-06-18T12:04:14.334Z,1.80
2018-06-18T12:06:49.419Z,1.90
2018-06-18T12:09:24.673Z,1.90
2018-06-18T12:11:54.679Z,1.80
2018-06-18T12:14:24.789Z,1.72
2018-06-18T12:16:54.792Z,1.60
2018-06-18T12:19:24.893Z,1.67
2018-06-18T12:21:54.908Z,1.70
2018-06-18T12:24:24.954Z,1.80
2018-06-18T12:26:55.055Z,1.80
2018-06-18T12:29:25.150Z,1.77
2018-06-18T12:31:55.183Z,1.70
2018-06-18T12:34:25.230Z,1.90
2018-06-18T12:36:55.222Z,1.83
2018-06-18T12:39:25.283Z,1.80
2018-06-18T12:42:03.322Z,2.10
2018-06-18T12:44:40.444Z,1.62
2018-06-18T12:47:15.403Z,1.70
2018-06-18T12:49:50.398Z,1.70
2018-06-18T12:52:25.490Z,2.00
2018-06-18T12:55:00.773Z,2.10
2018-06-18T12:57:30.891Z,1.87
2018-06-18T13:00:00.934Z,1.67
2018-06-18T13:02:41.854Z,1.90
2018-06-18T13:05:11.871Z,2.00
2018-06-18T13:07:41.880Z,1.67
2018-06-18T13:10:12.021Z,1.85
2018-06-18T13:12:41.994Z,1.67
2018-06-18T13:15:12.011Z,1.80
2018-06-18T13:17:42.015Z,1.65
2018-06-18T13:20:12.139Z,1.80
2018-06-18T13:22:42.109Z,1.60
2018-06-18T13:25:12.151Z,1.80
2018-06-18T13:27:47.311Z,1.90
2018-06-18T13:30:17.345Z,1.50
2018-06-18T13:32:47.334Z,1.90
2018-06-18T13:35:16.972Z,1.85
2018-06-18T13:37:52.084Z,1.72
2018-06-18T13:40:27.245Z,1.87
2018-06-18T13:43:02.343Z,2.08
2018-06-18T13:45:39.414Z,1.87
2018-06-18T13:48:14.434Z,2.10
2018-06-18T13:50:44.520Z,2.30
2018-06-18T13:53:14.549Z,1.80
2018-06-18T13:55:44.628Z,1.80
2018-06-18T13:58:14.647Z,1.92
2018-06-18T14:00:44.288Z,1.77
2018-06-18T14:03:14.344Z,2.15
2018-06-18T14:05:44.403Z,1.92
2018-06-18T14:08:14.398Z,1.77
2018-06-18T14:10:44.430Z,1.85
2018-06-18T14:13:14.610Z,2.10
2018-06-18T14:15:44.568Z,2.05
2018-06-18T14:18:14.542Z,1.82
2018-06-18T14:20:44.516Z,1.90
2018-06-18T14:23:14.547Z,1.93
2018-06-18T14:25:44.541Z,2.00
2018-06-18T14:28:14.563Z,1.83
2018-06-18T14:30:49.735Z,1.90
2018-06-18T14:33:24.742Z,2.20
2018-06-18T14:35:59.841Z,2.10
2018-06-18T14:38:35.102Z,2.00
2018-06-18T14:41:05.124Z,2.17
2018-06-18T14:43:35.139Z,1.98
2018-06-18T14:46:05.257Z,2.25
2018-06-18T14:48:35.293Z,1.92
2018-06-18T14:51:05.335Z,2.15
2018-06-18T14:53:35.366Z,2.02
2018-06-18T14:56:18.178Z,1.90
2018-06-18T14:58:53.680Z,2.00
2018-06-18T15:01:23.677Z,2.00
2018-06-18T15:03:53.806Z,2.05
2018-06-18T15:06:23.711Z,2.00
2018-06-18T15:08:53.748Z,2.30
2018-06-18T15:11:23.736Z,2.20
2018-06-18T15:13:53.874Z,1.70
2018-06-18T15:16:29.069Z,1.87
2018-06-18T15:18:59.904Z,1.95
2018-06-18T15:21:32.586Z,2.20
2018-06-18T15:24:06.533Z,1.95
2018-06-18T15:26:36.513Z,1.70
2018-06-18T15:29:06.537Z,2.33
2018-06-18T15:31:36.512Z,1.87
2018-06-18T15:34:06.534Z,1.90
2018-06-18T15:36:36.507Z,2.22
2018-06-18T15:39:10.233Z,1.90
2018-06-18T15:41:40.224Z,2.00
2018-06-18T15:44:10.465Z,1.80
2018-06-18T15:46:40.269Z,2.00
2018-06-18T15:49:09.949Z,1.80
2018-06-18T15:51:39.913Z,2.02
2018-06-18T15:54:09.510Z,1.98
2018-06-18T15:56:39.570Z,2.10
2018-06-18T15:59:09.526Z,2.02
2018-06-18T16:01:39.554Z,1.85
2018-06-18T16:04:09.573Z,1.85
2018-06-18T16:06:39.806Z,2.10
2018-06-18T16:09:11.018Z,2.10
2018-06-18T16:11:40.988Z,1.90
2018-06-18T16:14:11.472Z,2.08
2018-06-18T16:16:41.869Z,2.33
2018-06-18T16:19:11.579Z,2.08
2018-06-18T16:21:41.619Z,2.22
2018-06-18T16:24:11.796Z,2.00
2018-06-18T16:26:41.842Z,2.10
2018-06-18T16:29:11.481Z,2.17
2018-06-18T16:31:41.499Z,1.80
2018-06-18T16:34:11.568Z,2.05
2018-06-18T16:36:41.774Z,2.37
2018-06-18T16:39:13.675Z,2.10
2018-06-18T16:41:43.759Z,2.10
2018-06-18T16:44:13.824Z,2.00
2018-06-18T16:46:43.475Z,2.07
2018-06-18T16:49:13.558Z,2.30
2018-06-18T16:51:43.578Z,2.37
2018-06-18T16:54:13.655Z,2.08
2018-06-18T16:56:43.697Z,2.27
2018-06-18T16:59:13.788Z,1.90
2018-06-18T17:01:43.876Z,2.10
2018-06-18T17:04:13.948Z,1.90
2018-06-18T17:06:44.020Z,2.08
2018-06-18T17:09:13.690Z,2.20
2018-06-18T17:11:43.732Z,2.20
2018-06-18T17:14:13.964Z,2.00
2018-06-18T17:16:44.369Z,2.00
2018-06-18T17:19:14.732Z,2.10
2018-06-18T17:21:44.847Z,2.20
2018-06-18T17:24:15.262Z,2.08
2018-06-18T17:26:45.326Z,2.27
2018-06-18T17:29:15.978Z,2.00
2018-06-18T17:31:46.284Z,1.95
2018-06-18T17:34:16.504Z,1.77
2018-06-18T17:36:46.395Z,2.05
2018-06-18T17:39:16.763Z,1.82
2018-06-18T17:41:46.976Z,2.25
2018-06-18T17:44:17.110Z,1.85
2018-06-18T17:46:47.110Z,1.80
2018-06-18T17:49:17.145Z,2.00
2018-06-18T17:51:47.168Z,2.00
2018-06-18T17:54:17.213Z,2.17
2018-06-18T17:56:47.335Z,1.90
2018-06-18T17:59:17.430Z,1.80
2018-06-18T18:01:47.571Z,2.00
2018-06-18T18:04:17.757Z,1.72
2018-06-18T18:06:47.815Z,1.87
2018-06-18T18:09:17.813Z,1.87
2018-06-18T18:11:48.091Z,2.00
2018-06-18T18:14:18.095Z,1.95
2018-06-18T18:16:48.183Z,1.70
2018-06-18T18:19:18.198Z,1.70
2018-06-18T18:21:48.261Z,1.80
2018-06-18T18:24:18.355Z,1.95
2018-06-18T18:26:48.424Z,1.77
2018-06-18T18:29:18.471Z,1.92
2018-06-18T18:31:48.642Z,1.80
2018-06-18T18:34:19.063Z,1.70
2018-06-18T18:36:49.332Z,1.77
2018-06-18T18:39:19.422Z,1.70
2018-06-18T18:41:49.479Z,1.85
2018-06-18T18:44:19.511Z,1.75
2018-06-18T18:46:49.690Z,1.72
2018-06-18T18:49:19.779Z,1.87
2018-06-18T18:51:50.436Z,1.70
2018-06-18T18:54:37.867Z,1.50
2018-06-18T18:57:48.967Z,1.50
2018-06-18T19:00:18.982Z,1.80
2018-06-18T19:02:49.065Z,1.45
2018-06-18T19:05:19.069Z,1.50
2018-06-18T19:07:49.276Z,1.52
2018-06-18T19:10:26.968Z,1.75
2018-06-18T19:12:59.318Z,1.53
2018-06-18T19:15:29.465Z,1.65
2018-06-18T19:17:59.535Z,1.45
2018-06-18T19:20:55.367Z,1.30
2018-06-18T19:23:25.486Z,1.60
2018-06-18T19:25:56.654Z,1.60
2018-06-18T19:28:26.387Z,1.30
2018-06-18T19:31:17.742Z,1.70
2018-06-18T19:34:14.279Z,1.52
2018-06-18T19:36:59.422Z,2.67
2018-06-18T19:39:34.425Z,1.85
2018-06-18T19:42:04.625Z,1.57
2018-06-18T19:44:35.269Z,1.70
2018-06-18T19:47:21.727Z,1.95
2018-06-18T19:49:51.802Z,1.98
2018-06-18T19:52:21.854Z,1.52
2018-06-18T19:54:57.792Z,1.70
2018-06-18T19:57:28.026Z,1.80
2018-06-18T19:59:58.094Z,1.70
2018-06-18T20:02:28.400Z,1.60
2018-06-18T20:04:58.961Z,1.80
2018-06-18T20:07:29.126Z,1.50
2018-06-18T20:09:59.181Z,1.50
2018-06-18T20:12:29.587Z,1.90
2018-06-18T20:14:59.623Z,1.63
2018-06-18T20:17:29.832Z,1.80
2018-06-18T20:20:00.026Z,1.55
2018-06-18T20:22:30.247Z,1.70
2018-06-18T20:25:00.414Z,2.00
2018-06-18T20:27:30.693Z,1.65
2018-06-18T20:30:00.698Z,1.70
2018-06-18T20:32:31.027Z,1.60
2018-06-18T20:35:01.075Z,1.90
2018-06-18T20:37:31.229Z,1.70
2018-06-18T20:40:01.249Z,1.67
2018-06-18T20:42:31.569Z,1.80
2018-06-18T20:45:01.863Z,2.30
2018-06-18T20:47:31.734Z,2.10
2018-06-18T20:50:01.716Z,2.10
2018-06-18T20:52:31.564Z,2.00
2018-06-18T20:55:01.624Z,1.72
2018-06-18T20:57:31.985Z,1.82
2018-06-18T21:00:02.640Z,2.05
2018-06-18T21:02:33.747Z,1.95
2018-06-18T21:05:06.361Z,2.05
2018-06-18T21:07:36.457Z,1.90
2018-06-18T21:10:06.354Z,1.80
2018-06-18T21:12:36.503Z,1.90
2018-06-18T21:15:07.228Z,1.77
2018-06-18T21:17:37.229Z,1.85
2018-06-18T21:20:07.273Z,2.30
2018-06-18T21:22:37.304Z,2.10
2018-06-18T21:25:07.346Z,1.92
2018-06-18T21:27:37.337Z,1.85
2018-06-18T21:30:08.243Z,2.10
2018-06-18T21:32:38.258Z,1.80
2018-06-18T21:35:08.302Z,1.87
2018-06-18T21:37:38.290Z,1.92
2018-06-18T21:40:08.326Z,1.80
2018-06-18T21:42:38.353Z,2.00
2018-06-18T21:45:14.187Z,2.00
2018-06-18T21:47:44.170Z,2.05
2018-06-18T21:50:14.210Z,2.00
2018-06-18T21:52:44.254Z,2.00
2018-06-18T21:55:14.620Z,1.95
2018-06-18T21:57:44.666Z,2.00
2018-06-18T22:00:25.022Z,2.50
2018-06-18T22:02:55.074Z,2.00
2018-06-18T22:05:25.097Z,1.97
2018-06-18T22:07:55.533Z,2.00
2018-06-18T22:10:25.597Z,1.77
2018-06-18T22:12:55.602Z,2.08
2018-06-18T22:15:25.701Z,2.20
2018-06-18T22:17:55.750Z,2.10
2018-06-18T22:20:25.480Z,2.20
2018-06-18T22:22:55.578Z,2.33
2018-06-18T22:25:25.672Z,2.00
2018-06-18T22:27:55.941Z,2.02
2018-06-18T22:30:25.970Z,2.30
2018-06-18T22:32:56.000Z,2.10
2018-06-18T22:35:26.127Z,2.30
2018-06-18T22:37:56.165Z,2.20
2018-06-18T22:40:26.203Z,2.20
2018-06-18T22:42:56.225Z,2.30
2018-06-18T22:45:26.282Z,2.37
2018-06-18T22:47:56.319Z,2.12
2018-06-18T22:50:26.381Z,2.10
2018-06-18T22:52:57.109Z,2.12
2018-06-18T22:55:27.140Z,2.33
2018-06-18T22:57:57.186Z,2.02
2018-06-18T23:00:27.186Z,2.33
2018-06-18T23:02:57.235Z,2.30
2018-06-18T23:05:27.807Z,2.50
2018-06-18T23:07:57.853Z,2.27
2018-06-18T23:10:27.880Z,2.52
2018-06-18T23:12:57.861Z,2.35
2018-06-18T23:15:27.933Z,2.45
2018-06-18T23:17:57.958Z,2.40
2018-06-18T23:20:28.012Z,2.52
2018-06-18T23:22:58.123Z,2.45
2018-06-18T23:25:28.154Z,2.60
2018-06-18T23:27:58.186Z,2.62
2018-06-18T23:30:28.203Z,2.40
2018-06-18T23:32:58.228Z,2.35
2018-06-18T23:35:28.262Z,2.50
2018-06-18T23:37:58.390Z,2.35
2018-06-18T23:40:28.490Z,2.60
2018-06-18T23:42:58.162Z,2.20
2018-06-18T23:45:28.266Z,2.15
2018-06-18T23:47:58.382Z,2.57
2018-06-18T23:50:28.549Z,2.60
2018-06-18T23:52:58.614Z,2.60
2018-06-18T23:55:28.666Z,2.50
2018-06-18T23:57:58.654Z,2.62
